Whitehorse International Airport
CYXY : rendu visible

Aérodrome :











RETROUVEZ-NOUS SUR...

 
LOGIN :

S'inscrire | Disclaimer

   EN    FR    IT 

 









Légende :    VFR   VFR Marginal   IFR   IFR Intensif   IFR Très Intensif
Visi : 
Plafond : 
>= 8 km
>= 3000ft
5 à 8 km
1000 à 3000 ft
1500m à 5 km
500 à 1000 ft
800 à 1500m
200 à 500 ft
< 800m
< 200 ft
Symboles :   Orages  Brouillard  Fortes neiges  Fortes précipitations  Vent > 20 kt






- Altitude de l'aérodrome : 2317 ft
- Code IATA : YXY


CYXY - Whitehorse International

DERNIER METAR :
  • 140100Z 17015KT 15SM BKN009 M09/M11 A2983 RMK ST7 SLP156

METARs EXPIRÉS :
  • 140000Z 17012G17KT 15SM BKN009 M09/M11 A2982 RMK ST7 CIG RAG SLP152
  • 132328Z 16017KT 15SM BKN009 M09/M11 A2981 RMK ST7 CIG RAG SLP148
  • 132300Z 16014G21KT 40SM BKN011 M09/M11 A2981 RMK SC7 SLP148

TAF TAF CYXY
Valide du 14 à 00h jusqu'au 14 à 12h UTC


132338Z 1400/1412 17012KT P6SM SCT012 SCT200
TEMPO 1400/1412 P6SM -SN BKN009 RMK NXT FCST BY 140600Z



MET'MAP, la Météo Aéronautique d'un coup d'oeil ! - Copyright ORBIFLY Décembre 2007 - Disclaimer

ORBIFLY MET'MAP TEAM :

Programmation & Développement : Alexandra Zaïnal
Sur une idée originale de : Baudouin d'Aumeries
Assistance à la programmation : Marc-Olivier Méhu
Soutien technique & logistique : Manuel Goepfert

Contact : metmap@orbifly.com




SOURCES & CREDITS :

   NOAA       Earth
Advisory